Time;durP1;ratioP1;P1;durP2;ratioP2;P2;SDS_P1;SDS_P2;PMS_P1;PMS_P2;Temp;Humidity;BMP_temperature;BMP_pressure;BME280_temperature;BME280_humidity;BME280_pressure;Samples;Min_cycle;Max_cycle;Signal;HPM_P1;HPM_P2
2022/12/27 00:00:30;;;;;;;2.17;1.40;;;3.70;99.90;;;;;;4128969;28;20194;-65
2022/12/27 00:02:31;;;;;;;1.57;1.30;;;3.70;99.90;;;;;;4142833;28;20289;-64
2022/12/27 00:04:32;;;;;;;2.60;1.10;;;3.60;99.90;;;;;;4129256;28;20200;-63
2022/12/27 00:06:33;;;;;;;2.33;1.43;;;3.60;99.90;;;;;;4128222;28;20190;-63
2022/12/27 00:08:33;;;;;;;2.17;1.10;;;3.50;99.90;;;;;;4133248;28;20231;-63
2022/12/27 00:10:35;;;;;;;2.03;1.87;;;3.50;99.90;;;;;;4142971;28;20221;-63
2022/12/27 00:12:36;;;;;;;1.97;1.30;;;3.50;99.90;;;;;;4133083;28;20209;-64
2022/12/27 00:14:37;;;;;;;2.20;1.60;;;3.50;99.90;;;;;;4142918;28;20501;-64
2022/12/27 00:16:37;;;;;;;1.80;1.23;;;3.50;99.90;;;;;;4132102;28;20815;-63
2022/12/27 00:18:39;;;;;;;4.40;1.50;;;3.60;99.90;;;;;;4143267;28;20208;-64
2022/12/27 00:20:40;;;;;;;1.43;1.20;;;3.50;99.90;;;;;;4132439;28;20214;-62
2022/12/27 00:22:40;;;;;;;3.50;2.50;;;3.60;99.90;;;;;;4143631;28;20433;-64
2022/12/27 00:24:41;;;;;;;1.67;1.23;;;3.60;99.90;;;;;;4132583;28;20217;-64
2022/12/27 00:26:42;;;;;;;2.20;1.20;;;3.50;99.90;;;;;;4143041;28;20244;-64
2022/12/27 00:28:43;;;;;;;7.83;1.70;;;3.50;99.90;;;;;;4128546;28;20210;-64
2022/12/27 00:30:44;;;;;;;1.33;1.13;;;3.50;99.90;;;;;;4128398;28;20245;-63
2022/12/27 00:32:44;;;;;;;4.20;1.60;;;3.50;99.90;;;;;;4131484;28;20429;-63
2022/12/27 00:34:45;;;;;;;2.23;1.63;;;3.40;99.90;;;;;;4144320;28;20255;-63
2022/12/27 00:36:46;;;;;;;3.47;1.30;;;3.40;99.90;;;;;;4130817;28;20217;-64
2022/12/27 00:38:47;;;;;;;3.30;1.30;;;3.40;99.90;;;;;;4143863;28;20267;-63
2022/12/27 00:40:48;;;;;;;1.97;1.43;;;3.40;99.90;;;;;;4131433;28;20190;-64
2022/12/27 00:42:48;;;;;;;4.23;1.60;;;3.40;99.90;;;;;;4123491;28;20461;-64
2022/12/27 00:44:49;;;;;;;1.67;1.30;;;3.30;99.90;;;;;;4126625;28;20193;-66
2022/12/27 00:46:50;;;;;;;4.03;3.00;;;3.30;99.90;;;;;;4142791;28;20211;-64
2022/12/27 00:48:50;;;;;;;6.03;1.30;;;3.20;99.90;;;;;;4145700;28;20230;-64
2022/12/27 00:51:02;;;;;;;3.63;1.33;;;3.10;99.90;;;;;;4128589;28;20649;-63
2022/12/27 00:53:03;;;;;;;2.83;1.30;;;3.10;99.90;;;;;;4146186;28;20193;-63
2022/12/27 00:55:04;;;;;;;4.83;1.70;;;3.00;99.90;;;;;;4146033;28;20439;-63
2022/12/27 00:57:04;;;;;;;2.70;1.27;;;3.00;99.90;;;;;;4144781;28;20917;-64
2022/12/27 00:59:05;;;;;;;2.43;1.33;;;2.90;99.90;;;;;;4141107;28;20457;-64
2022/12/27 01:01:14;;;;;;;1.63;1.30;;;2.90;99.90;;;;;;4129117;28;20196;-63
2022/12/27 01:03:16;;;;;;;6.23;1.80;;;2.90;99.90;;;;;;4112441;28;20209;-63
2022/12/27 01:05:17;;;;;;;1.50;1.30;;;2.80;99.90;;;;;;4129411;28;20495;-64
2022/12/27 01:07:17;;;;;;;2.07;1.50;;;2.80;99.90;;;;;;4129043;28;21007;-64
2022/12/27 01:09:18;;;;;;;3.27;1.60;;;2.80;99.90;;;;;;4128847;28;20232;-64
2022/12/27 01:11:19;;;;;;;4.93;1.60;;;2.70;99.90;;;;;;4129653;28;20200;-65
2022/12/27 01:13:20;;;;;;;2.93;1.40;;;2.80;99.90;;;;;;4129435;28;20182;-62
2022/12/27 01:15:20;;;;;;;3.97;1.80;;;2.80;99.90;;;;;;4112297;28;20209;-63
2022/12/27 01:17:21;;;;;;;1.70;1.60;;;2.80;99.90;;;;;;4129179;28;20185;-63
2022/12/27 01:19:22;;;;;;;7.07;1.60;;;2.80;99.90;;;;;;4124927;28;20210;-63
2022/12/27 01:21:24;;;;;;;3.03;1.40;;;2.80;99.90;;;;;;4137893;28;20559;-63
2022/12/27 01:23:26;;;;;;;2.57;1.40;;;2.80;99.90;;;;;;4120199;28;20186;-63
2022/12/27 01:25:27;;;;;;;3.13;1.63;;;2.70;99.90;;;;;;4113858;28;20447;-63
2022/12/27 01:27:27;;;;;;;2.20;1.50;;;2.80;99.90;;;;;;4112966;28;20503;-62
2022/12/27 01:29:28;;;;;;;2.53;1.40;;;2.80;99.90;;;;;;4113757;28;20333;-62
2022/12/27 01:31:29;;;;;;;3.80;1.30;;;2.80;99.90;;;;;;4113737;28;20236;-62
2022/12/27 01:33:29;;;;;;;1.93;1.20;;;2.80;99.90;;;;;;4113594;28;20204;-62
2022/12/27 01:35:30;;;;;;;2.30;1.40;;;2.70;99.90;;;;;;4113754;28;20568;-62
2022/12/27 01:37:31;;;;;;;4.70;1.40;;;2.80;99.90;;;;;;4113246;28;20198;-62
2022/12/27 01:39:31;;;;;;;1.53;1.30;;;2.80;99.90;;;;;;4113506;28;20206;-63
2022/12/27 01:43:54;;;;;;;1.23;1.10;;;2.80;99.90;;;;;;4098760;28;20230;-62
2022/12/27 01:45:55;;;;;;;2.47;1.20;;;2.90;99.90;;;;;;4113395;28;20979;-62
2022/12/27 01:48:13;;;;;;;5.97;1.43;;;2.90;99.90;;;;;;4112967;28;20186;-62
2022/12/27 01:50:21;;;;;;;2.70;1.00;;;3.00;99.90;;;;;;4113390;28;20201;-62
2022/12/27 01:52:27;;;;;;;1.67;1.00;;;2.90;99.90;;;;;;4113313;28;20423;-62
2022/12/27 01:54:28;;;;;;;1.20;1.10;;;2.90;99.90;;;;;;4113492;28;20475;-62
2022/12/27 01:56:30;;;;;;;1.20;0.90;;;3.00;99.90;;;;;;4112628;28;20822;-62
2022/12/27 01:58:47;;;;;;;3.20;1.03;;;2.90;99.90;;;;;;4113330;28;20229;-62
2022/12/27 02:00:48;;;;;;;1.10;0.90;;;2.80;99.90;;;;;;4113320;28;20426;-62
2022/12/27 02:02:50;;;;;;;2.77;1.20;;;2.80;99.90;;;;;;4113171;28;20424;-62
2022/12/27 02:04:52;;;;;;;1.87;1.00;;;2.80;99.90;;;;;;4095855;29;20433;-62
2022/12/27 02:06:53;;;;;;;1.20;1.00;;;2.70;99.90;;;;;;4112360;28;20506;-62
2022/12/27 02:09:19;;;;;;;2.23;1.00;;;2.60;99.90;;;;;;4096128;29;20504;-62
2022/12/27 02:11:49;;;;;;;1.50;1.03;;;2.40;99.90;;;;;;4113061;28;20195;-62
2022/12/27 02:13:46;;;;;;;4.17;1.10;;;2.30;99.90;;;;;;4098607;28;20451;-62
2022/12/27 02:15:47;;;;;;;1.30;1.03;;;2.20;99.90;;;;;;4113063;28;20434;-64
2022/12/27 02:17:47;;;;;;;1.90;0.97;;;2.20;99.90;;;;;;4112490;28;20326;-62
2022/12/27 02:20:05;;;;;;;1.57;1.23;;;2.20;99.90;;;;;;4095915;29;20203;-62
2022/12/27 02:22:30;;;;;;;2.20;1.47;;;2.20;99.90;;;;;;4115907;28;20172;-62
2022/12/27 02:25:17;;;;;;;1.70;1.30;;;2.20;99.90;;;;;;4115815;28;20423;-62
2022/12/27 02:27:49;;;;;;;1.90;1.27;;;2.20;99.90;;;;;;4098034;29;20435;-62
2022/12/27 02:30:06;;;;;;;2.70;1.30;;;2.30;99.90;;;;;;4098490;29;20973;-62
2022/12/27 02:32:26;;;;;;;2.83;1.27;;;2.40;99.90;;;;;;4098901;29;20430;-64
2022/12/27 02:34:35;;;;;;;1.60;1.30;;;2.40;99.90;;;;;;4098703;29;20418;-62
2022/12/27 02:36:37;;;;;;;1.77;1.20;;;2.40;99.90;;;;;;4098152;29;20417;-62
2022/12/27 02:38:51;;;;;;;1.53;1.20;;;2.50;99.90;;;;;;4098632;29;20475;-64
2022/12/27 02:53:04;;;;;;;3.07;1.33;;;2.60;99.90;;;;;;4111076;28;20879;-62
2022/12/27 02:55:13;;;;;;;3.53;1.50;;;2.60;99.90;;;;;;4114926;28;20534;-63
2022/12/27 02:57:36;;;;;;;5.23;1.30;;;2.60;99.90;;;;;;4130978;28;20418;-62
2022/12/27 03:03:22;;;;;;;1.30;1.00;;;2.60;99.90;;;;;;4131504;28;20441;-62
2022/12/27 03:06:38;;;;;;;2.03;1.30;;;2.50;99.90;;;;;;4131401;28;20436;-62
2022/12/27 03:08:26;;;;;;;4.30;1.40;;;2.40;99.90;;;;;;4115989;28;20443;-62
2022/12/27 03:16:16;;;;;;;3.27;1.20;;;2.20;99.90;;;;;;4116907;28;20406;-62
2022/12/27 03:18:34;;;;;;;4.43;1.30;;;2.20;99.90;;;;;;4133668;28;20513;-62
2022/12/27 03:25:27;;;;;;;2.07;1.30;;;2.00;99.90;;;;;;4101391;28;20415;-62
2022/12/27 03:27:35;;;;;;;1.83;1.20;;;2.10;99.90;;;;;;4104332;28;20947;-62
2022/12/27 03:34:39;;;;;;;1.67;1.30;;;2.30;99.90;;;;;;4130291;28;21221;-62
2022/12/27 03:39:21;;;;;;;2.83;1.60;;;2.30;99.90;;;;;;4116528;28;20477;-62
2022/12/27 03:43:50;;;;;;;2.47;1.20;;;2.10;99.90;;;;;;4116523;28;21036;-62
2022/12/27 03:48:22;;;;;;;3.97;1.10;;;2.00;99.90;;;;;;4130627;28;20205;-62
2022/12/27 03:50:34;;;;;;;3.37;1.10;;;1.80;99.90;;;;;;4113755;28;20458;-62
2022/12/27 03:52:45;;;;;;;2.20;1.30;;;1.70;99.90;;;;;;4129597;28;20827;-62
2022/12/27 03:54:50;;;;;;;4.77;1.63;;;1.60;99.90;;;;;;4129837;28;20508;-62
2022/12/27 03:56:57;;;;;;;2.33;1.30;;;1.40;99.90;;;;;;4130477;28;20430;-62
2022/12/27 03:58:59;;;;;;;1.50;1.13;;;1.30;99.90;;;;;;4129835;28;20433;-62
2022/12/27 04:01:00;;;;;;;2.50;1.50;;;1.30;99.90;;;;;;4129849;28;20455;-63
2022/12/27 04:03:01;;;;;;;2.43;1.47;;;1.30;99.90;;;;;;4130717;28;20513;-62
2022/12/27 04:05:01;;;;;;;2.37;1.30;;;1.30;99.90;;;;;;4130985;28;20890;-62
2022/12/27 04:07:03;;;;;;;10.80;3.33;;;1.20;99.90;;;;;;4130154;28;20182;-62
2022/12/27 04:34:44;;;;;;;5.07;2.00;;;0.80;99.90;;;;;;4130277;28;20420;-62
2022/12/27 04:36:44;;;;;;;5.60;2.03;;;0.90;99.90;;;;;;4129734;28;20475;-62
2022/12/27 04:38:45;;;;;;;9.17;2.30;;;1.00;99.90;;;;;;4129108;28;20464;-62
2022/12/27 04:54:57;;;;;;;4.87;2.10;;;0.90;99.90;;;;;;4129952;28;20408;-63
2022/12/27 04:56:57;;;;;;;3.57;2.00;;;0.90;99.90;;;;;;4129460;28;21157;-62
2022/12/27 05:03:37;;;;;;;2.63;1.70;;;0.80;99.90;;;;;;4129967;28;20784;-62
2022/12/27 05:05:39;;;;;;;2.17;1.50;;;0.70;99.90;;;;;;4112609;28;20529;-62
2022/12/27 05:14:40;;;;;;;4.63;1.90;;;0.70;99.90;;;;;;4129664;28;20445;-62
2022/12/27 05:16:43;;;;;;;31.57;4.47;;;0.70;99.90;;;;;;4129317;28;20421;-62
2022/12/27 05:18:44;;;;;;;47.53;5.57;;;0.70;99.90;;;;;;4135377;28;20206;-62
2022/12/27 05:20:44;;;;;;;47.23;4.80;;;0.60;99.90;;;;;;4142482;28;20444;-62
2022/12/27 05:27:24;;;;;;;12.00;5.97;;;0.70;99.90;;;;;;4119073;28;20515;-63
2022/12/27 05:29:25;;;;;;;10.20;5.43;;;0.70;99.90;;;;;;4112351;28;20458;-63
2022/12/27 05:31:27;;;;;;;6.53;3.60;;;0.60;99.90;;;;;;4111972;28;20191;-63
2022/12/27 05:33:31;;;;;;;12.07;5.13;;;0.60;99.90;;;;;;4120792;28;20197;-63
2022/12/27 05:35:33;;;;;;;14.50;4.80;;;0.70;99.90;;;;;;4113436;28;20446;-63
2022/12/27 05:37:34;;;;;;;26.93;6.70;;;0.70;99.90;;;;;;4112638;28;20948;-62
2022/12/27 05:39:34;;;;;;;23.87;6.43;;;0.60;99.90;;;;;;4113206;28;20453;-63
2022/12/27 05:41:35;;;;;;;20.80;5.80;;;0.60;99.90;;;;;;4113379;28;20199;-62
2022/12/27 05:43:36;;;;;;;38.60;7.30;;;0.60;99.90;;;;;;4113360;28;20652;-63
2022/12/27 05:45:36;;;;;;;12.40;4.77;;;0.50;99.90;;;;;;4096172;29;20663;-63
2022/12/27 05:47:37;;;;;;;18.30;6.77;;;0.50;99.90;;;;;;4112616;28;20218;-62
2022/12/27 05:49:38;;;;;;;29.30;5.33;;;0.40;99.90;;;;;;4112997;28;20213;-63
2022/12/27 05:51:38;;;;;;;15.37;6.20;;;0.40;99.90;;;;;;4113256;28;20194;-63
2022/12/27 05:53:39;;;;;;;18.57;5.50;;;0.40;99.90;;;;;;4113170;28;20187;-62
2022/12/27 05:55:40;;;;;;;24.90;4.57;;;0.40;99.90;;;;;;4113782;28;21180;-62
2022/12/27 05:57:41;;;;;;;35.07;6.77;;;0.40;99.90;;;;;;4115881;28;20262;-62
2022/12/27 05:59:41;;;;;;;10.00;4.20;;;0.40;99.90;;;;;;4116374;28;20575;-63
2022/12/27 06:01:42;;;;;;;9.90;4.20;;;0.50;99.90;;;;;;4098979;29;20194;-62
2022/12/27 06:03:44;;;;;;;6.57;3.73;;;0.50;99.90;;;;;;4116238;28;20219;-62
2022/12/27 06:05:44;;;;;;;6.87;4.03;;;0.50;99.90;;;;;;4118475;28;20187;-62
2022/12/27 06:07:45;;;;;;;6.87;3.30;;;0.50;99.90;;;;;;4114093;28;21080;-62
2022/12/27 06:09:46;;;;;;;3.63;2.60;;;0.50;99.90;;;;;;4131884;28;20198;-62
2022/12/27 06:11:46;;;;;;;7.47;2.80;;;0.40;99.90;;;;;;4132152;28;20269;-62
2022/12/27 06:13:51;;;;;;;6.03;3.00;;;0.40;99.90;;;;;;4132279;28;20178;-62
2022/12/27 06:15:52;;;;;;;6.40;3.23;;;0.40;99.90;;;;;;4132400;28;20266;-62
2022/12/27 06:17:53;;;;;;;9.03;4.47;;;0.40;99.90;;;;;;4131587;28;20515;-62
2022/12/27 06:19:53;;;;;;;18.87;7.40;;;0.40;99.90;;;;;;4132478;28;20223;-62
2022/12/27 06:21:54;;;;;;;134.77;15.97;;;0.30;99.90;;;;;;4132139;28;20182;-62
2022/12/27 06:23:55;;;;;;;147.87;15.40;;;0.20;99.90;;;;;;4132096;28;20260;-62
2022/12/27 06:25:55;;;;;;;231.17;18.27;;;0.00;99.90;;;;;;4131894;28;20182;-62
2022/12/27 06:27:56;;;;;;;83.57;12.87;;;-0.10;99.90;;;;;;4131422;28;20210;-62
2022/12/27 06:29:56;;;;;;;131.73;19.07;;;-0.10;99.90;;;;;;4131832;28;20325;-62
2022/12/27 06:31:57;;;;;;;108.90;15.53;;;-0.20;99.90;;;;;;4131931;28;20183;-62
2022/12/27 06:33:58;;;;;;;118.80;16.13;;;-0.10;99.90;;;;;;4132050;28;20179;-62
2022/12/27 06:36:08;;;;;;;52.90;13.63;;;-0.10;99.90;;;;;;4131728;28;20179;-62
2022/12/27 06:38:09;;;;;;;28.43;9.57;;;-0.10;99.90;;;;;;4131087;28;20181;-62
2022/12/27 06:40:10;;;;;;;36.90;10.80;;;0.00;99.90;;;;;;4131893;28;20425;-62
2022/12/27 06:42:10;;;;;;;88.23;15.07;;;0.00;99.90;;;;;;4131816;28;20190;-63
2022/12/27 06:44:11;;;;;;;116.30;17.30;;;0.00;99.90;;;;;;4131677;28;20433;-63
2022/12/27 06:46:16;;;;;;;59.50;12.13;;;0.10;99.90;;;;;;4131657;28;20244;-62
2022/12/27 06:48:17;;;;;;;49.30;13.27;;;0.10;99.90;;;;;;4113925;28;20605;-62
2022/12/27 06:50:17;;;;;;;36.77;13.13;;;0.20;99.90;;;;;;4131557;28;20469;-62
2022/12/27 06:52:18;;;;;;;46.70;16.67;;;0.20;99.90;;;;;;4131510;28;20229;-62
2022/12/27 06:54:19;;;;;;;83.20;23.90;;;0.30;99.90;;;;;;4131366;28;20179;-62
2022/12/27 06:56:21;;;;;;;92.37;34.50;;;0.20;99.90;;;;;;4114047;28;20243;-62
2022/12/27 06:58:22;;;;;;;43.97;12.60;;;0.20;99.90;;;;;;4113970;28;20203;-63
2022/12/27 07:00:22;;;;;;;72.93;11.63;;;0.10;99.90;;;;;;4131527;28;20465;-62
2022/12/27 07:02:23;;;;;;;94.53;17.60;;;0.10;99.90;;;;;;4131924;28;20194;-62
2022/12/27 07:04:24;;;;;;;40.67;9.03;;;0.10;99.90;;;;;;4131596;28;20182;-62
2022/12/27 07:06:27;;;;;;;35.53;8.37;;;0.10;99.90;;;;;;4131155;28;20189;-62
2022/12/27 07:08:28;;;;;;;20.60;6.50;;;0.10;99.90;;;;;;4130649;28;20642;-65
2022/12/27 07:10:28;;;;;;;16.80;7.63;;;0.20;99.90;;;;;;4131666;28;20461;-63
2022/12/27 07:12:29;;;;;;;16.80;8.73;;;0.20;99.90;;;;;;4131951;28;20184;-63
2022/12/27 07:14:30;;;;;;;14.93;7.00;;;0.20;99.90;;;;;;4114308;28;20199;-64
2022/12/27 07:16:30;;;;;;;10.40;5.73;;;0.30;99.90;;;;;;4130764;28;20259;-63
2022/12/27 07:18:31;;;;;;;10.10;5.57;;;0.30;99.90;;;;;;4132936;28;20210;-63
2022/12/27 07:20:32;;;;;;;8.33;4.63;;;0.30;99.90;;;;;;4143098;28;20197;-63
2022/12/27 07:22:33;;;;;;;6.37;3.77;;;0.30;99.90;;;;;;4139281;28;20178;-63
2022/12/27 07:24:34;;;;;;;9.33;4.80;;;0.20;99.90;;;;;;4136415;28;20210;-63
2022/12/27 07:26:34;;;;;;;10.33;4.57;;;0.30;99.90;;;;;;4132872;28;20437;-63
2022/12/27 07:28:36;;;;;;;10.33;5.10;;;0.20;99.90;;;;;;4135710;28;20328;-63
2022/12/27 07:30:40;;;;;;;8.90;5.20;;;0.20;99.90;;;;;;4120018;28;20294;-63
2022/12/27 07:32:41;;;;;;;12.80;6.70;;;0.20;99.90;;;;;;4137645;28;20493;-63
2022/12/27 07:34:42;;;;;;;13.33;7.17;;;0.30;99.90;;;;;;4137555;28;20457;-63
2022/12/27 07:36:42;;;;;;;16.77;7.90;;;0.30;99.90;;;;;;4135597;28;20186;-63
2022/12/27 07:38:44;;;;;;;18.57;10.83;;;0.30;99.90;;;;;;4122567;28;20199;-62
2022/12/27 07:40:44;;;;;;;19.20;9.73;;;0.30;99.90;;;;;;4122274;28;20552;-62
2022/12/27 07:42:45;;;;;;;10.17;6.70;;;0.30;99.90;;;;;;4122347;28;20445;-63
2022/12/27 07:44:45;;;;;;;12.30;6.67;;;0.40;99.90;;;;;;4122492;28;20191;-63
2022/12/27 07:46:46;;;;;;;9.10;5.83;;;0.30;99.90;;;;;;4122042;28;20187;-63
2022/12/27 07:48:47;;;;;;;13.33;6.90;;;0.30;99.90;;;;;;4122161;28;20218;-63
2022/12/27 07:50:56;;;;;;;15.87;8.53;;;0.30;99.90;;;;;;4122693;28;20353;-63
2022/12/27 07:52:57;;;;;;;15.13;8.07;;;0.30;99.90;;;;;;4122621;28;20654;-63
2022/12/27 07:54:58;;;;;;;13.93;6.90;;;0.30;99.90;;;;;;4122470;28;20427;-63
2022/12/27 07:56:58;;;;;;;11.00;6.77;;;0.40;99.90;;;;;;4121976;28;20183;-63
2022/12/27 07:59:00;;;;;;;18.80;10.77;;;0.50;99.90;;;;;;4121861;28;20202;-63
2022/12/27 08:01:03;;;;;;;16.67;10.67;;;0.50;99.90;;;;;;4105325;29;20593;-62
2022/12/27 08:03:04;;;;;;;16.03;9.30;;;0.50;99.90;;;;;;4105484;29;20423;-63
2022/12/27 08:05:05;;;;;;;11.23;5.43;;;0.60;99.90;;;;;;4122646;28;20431;-63
2022/12/27 08:07:12;;;;;;;9.47;4.87;;;0.80;99.90;;;;;;4121696;28;20187;-63
2022/12/27 08:09:19;;;;;;;5.13;3.57;;;0.90;99.90;;;;;;4104466;29;20506;-62
2022/12/27 08:11:19;;;;;;;7.57;4.47;;;1.00;99.90;;;;;;4105080;29;20471;-63
2022/12/27 08:13:20;;;;;;;6.73;3.47;;;1.20;99.90;;;;;;4105350;29;20444;-63
2022/12/27 08:15:21;;;;;;;9.57;4.57;;;1.20;99.90;;;;;;4122630;28;20426;-63
2022/12/27 08:17:26;;;;;;;7.03;3.77;;;1.20;99.90;;;;;;4120867;28;20190;-63
2022/12/27 08:19:26;;;;;;;8.07;4.00;;;1.40;99.90;;;;;;4088267;29;20211;-63
2022/12/27 08:21:27;;;;;;;8.57;4.37;;;1.40;99.90;;;;;;4121265;28;20442;-63
2022/12/27 08:23:28;;;;;;;11.60;6.83;;;1.50;99.90;;;;;;4122149;28;20186;-63
2022/12/27 08:25:29;;;;;;;11.03;5.97;;;1.40;99.90;;;;;;4121311;28;20213;-62
2022/12/27 08:27:30;;;;;;;13.90;7.57;;;1.40;99.90;;;;;;4119187;28;20698;-63
2022/12/27 08:29:30;;;;;;;15.83;10.03;;;1.40;99.90;;;;;;4130126;28;20501;-63
2022/12/27 08:31:31;;;;;;;16.47;10.60;;;1.40;99.90;;;;;;4137879;28;20213;-63
2022/12/27 08:33:32;;;;;;;9.27;6.33;;;1.50;99.90;;;;;;4138056;28;20178;-63
2022/12/27 08:35:42;;;;;;;16.67;9.73;;;1.60;99.90;;;;;;4137735;28;20186;-63
2022/12/27 08:37:42;;;;;;;9.17;5.80;;;1.50;99.90;;;;;;4132359;28;20174;-63
2022/12/27 08:39:43;;;;;;;6.47;3.60;;;1.40;99.90;;;;;;4130452;28;20448;-63
2022/12/27 08:41:44;;;;;;;5.10;3.17;;;1.20;99.90;;;;;;4130434;28;20174;-63
2022/12/27 08:43:45;;;;;;;8.20;3.83;;;1.20;99.90;;;;;;4130208;28;20247;-63
2022/12/27 08:45:46;;;;;;;8.43;5.43;;;1.20;99.90;;;;;;4130319;28;20417;-64
2022/12/27 08:47:46;;;;;;;13.10;7.03;;;1.30;99.90;;;;;;4130601;28;20189;-61
2022/12/27 08:49:47;;;;;;;11.80;7.47;;;1.40;99.90;;;;;;4129876;28;20617;-63
2022/12/27 08:51:48;;;;;;;14.87;6.83;;;1.50;99.90;;;;;;4129548;28;20256;-62
2022/12/27 08:53:49;;;;;;;20.60;8.47;;;1.80;99.90;;;;;;4112545;28;20186;-62
2022/12/27 08:55:50;;;;;;;20.80;9.17;;;1.90;99.90;;;;;;4129393;28;20416;-62
2022/12/27 08:57:56;;;;;;;25.47;11.70;;;1.90;99.90;;;;;;4129341;28;20184;-62
2022/12/27 08:59:57;;;;;;;22.57;9.73;;;2.00;99.90;;;;;;4129994;28;20211;-62
2022/12/27 09:01:57;;;;;;;24.40;10.93;;;2.10;99.90;;;;;;4130096;28;20459;-62
2022/12/27 09:03:58;;;;;;;19.40;10.53;;;2.10;99.90;;;;;;4112320;28;20840;-62
2022/12/27 09:06:14;;;;;;;19.63;10.53;;;2.20;99.90;;;;;;4129627;28;21555;-63
2022/12/27 09:08:15;;;;;;;18.10;8.67;;;2.20;99.90;;;;;;4129211;28;20625;-61
2022/12/27 09:10:17;;;;;;;17.20;4.60;;;2.30;99.90;;;;;;4129486;28;20521;-63
2022/12/27 09:12:18;;;;;;;7.00;3.83;;;2.30;99.90;;;;;;4129732;28;20437;-62
2022/12/27 09:14:19;;;;;;;8.47;2.97;;;2.20;99.90;;;;;;4129731;28;20438;-62
2022/12/27 09:16:23;;;;;;;6.60;3.57;;;2.30;99.90;;;;;;4129544;28;20179;-62
2022/12/27 09:18:24;;;;;;;8.50;3.33;;;2.40;99.90;;;;;;4133836;28;20504;-62
2022/12/27 09:20:24;;;;;;;4.97;3.20;;;2.50;99.90;;;;;;4132733;28;20443;-62
2022/12/27 09:22:27;;;;;;;7.03;4.00;;;2.50;99.90;;;;;;4130226;28;20874;-62
2022/12/27 09:24:27;;;;;;;4.83;2.93;;;2.60;99.90;;;;;;4112877;28;20657;-62
2022/12/27 09:26:30;;;;;;;8.50;3.20;;;2.80;99.90;;;;;;4129767;28;20436;-63
2022/12/27 09:28:31;;;;;;;9.60;4.50;;;3.00;99.90;;;;;;4130126;28;20712;-63
2022/12/27 09:30:32;;;;;;;7.33;3.60;;;3.00;99.90;;;;;;4129307;28;20571;-63
2022/12/27 09:32:33;;;;;;;9.83;4.90;;;3.10;99.90;;;;;;4130002;28;20922;-63
2022/12/27 09:34:33;;;;;;;8.07;3.30;;;3.50;99.90;;;;;;4129888;28;20267;-63
2022/12/27 09:36:38;;;;;;;7.70;3.77;;;3.60;99.90;;;;;;4116139;28;20438;-63
2022/12/27 09:38:39;;;;;;;8.03;4.07;;;3.80;99.90;;;;;;4113526;28;20584;-63
2022/12/27 09:41:01;;;;;;;8.67;3.93;;;4.30;99.90;;;;;;4113871;28;20461;-64
2022/12/27 09:43:06;;;;;;;7.50;4.60;;;4.60;99.90;;;;;;4096627;29;20438;-63
2022/12/27 09:45:17;;;;;;;10.50;2.77;;;4.60;99.90;;;;;;4096556;29;20431;-63
2022/12/27 09:47:45;;;;;;;6.97;3.00;;;4.60;99.90;;;;;;4079952;29;20439;-63
2022/12/27 09:49:51;;;;;;;3.50;2.40;;;4.60;99.90;;;;;;4113312;28;20469;-64
2022/12/27 09:51:59;;;;;;;4.70;3.20;;;4.60;99.90;;;;;;4096330;29;20416;-63
2022/12/27 09:54:11;;;;;;;8.57;3.03;;;5.10;99.90;;;;;;4096374;29;20822;-64
2022/12/27 09:56:22;;;;;;;4.57;2.40;;;5.30;99.90;;;;;;4096569;29;20431;-63
2022/12/27 09:58:46;;;;;;;6.60;3.07;;;5.80;99.90;;;;;;4096130;29;20820;-61
2022/12/27 10:00:50;;;;;;;4.33;2.60;;;6.10;99.90;;;;;;4113352;28;20501;-63
2022/12/27 10:02:51;;;;;;;5.47;2.10;;;6.40;99.90;;;;;;4113806;28;20426;-64
2022/12/27 10:04:56;;;;;;;3.70;2.17;;;6.70;99.90;;;;;;4096596;29;20562;-64
2022/12/27 10:07:20;;;;;;;3.43;1.80;;;7.10;99.90;;;;;;4095653;29;20730;-64
2022/12/27 10:09:38;;;;;;;3.00;1.50;;;7.40;98.60;;;;;;4113615;28;20445;-63
2022/12/27 10:12:14;;;;;;;2.07;1.20;;;7.70;99.40;;;;;;4113351;28;20420;-68
2022/12/27 10:14:32;;;;;;;3.93;1.60;;;8.10;99.90;;;;;;4113987;28;20171;-63
2022/12/27 10:16:51;;;;;;;2.73;1.43;;;8.40;97.60;;;;;;4095661;29;20180;-65
2022/12/27 10:19:32;;;;;;;2.00;1.20;;;9.00;99.90;;;;;;4096848;29;20211;-65
2022/12/27 10:21:38;;;;;;;2.13;1.00;;;9.60;94.50;;;;;;4113673;28;20183;-64
2022/12/27 10:23:44;;;;;;;1.87;1.20;;;10.00;96.50;;;;;;4096781;29;20267;-63
2022/12/27 10:25:46;;;;;;;2.27;1.70;;;9.60;91.50;;;;;;4096642;29;20219;-63
2022/12/27 10:27:50;;;;;;;4.90;2.37;;;9.40;90.40;;;;;;4095521;29;20183;-63
2022/12/27 10:29:57;;;;;;;2.87;1.87;;;9.10;87.30;;;;;;4127011;28;20209;-63
2022/12/27 10:31:57;;;;;;;2.60;1.40;;;9.40;90.90;;;;;;4129421;28;20198;-64
2022/12/27 10:33:59;;;;;;;2.23;1.40;;;9.00;91.50;;;;;;4129250;28;20896;-63
2022/12/27 10:36:11;;;;;;;2.70;1.30;;;8.70;93.70;;;;;;4129202;28;20202;-63
2022/12/27 10:38:12;;;;;;;1.90;1.40;;;9.20;93.10;;;;;;4111609;28;20174;-62
2022/12/27 10:40:27;;;;;;;1.33;1.10;;;9.50;91.20;;;;;;4130918;28;20190;-63
2022/12/27 10:42:37;;;;;;;2.80;1.27;;;9.90;88.70;;;;;;4113984;28;20341;-63
2022/12/27 10:44:38;;;;;;;2.80;1.20;;;9.90;87.20;;;;;;4114740;28;20210;-63
2022/12/27 10:46:43;;;;;;;1.60;1.30;;;9.90;88.30;;;;;;4131462;28;20661;-63
2022/12/27 10:48:58;;;;;;;2.33;1.23;;;10.10;86.80;;;;;;4131683;28;20202;-63
2022/12/27 10:51:07;;;;;;;4.13;1.20;;;10.50;83.90;;;;;;4131446;28;20677;-64
2022/12/27 10:53:38;;;;;;;3.00;1.70;;;10.70;79.10;;;;;;4120022;28;20297;-64
2022/12/27 10:55:39;;;;;;;2.27;1.27;;;10.40;78.40;;;;;;4127140;28;20599;-64
2022/12/27 10:57:39;;;;;;;2.00;1.33;;;9.90;83.10;;;;;;4143733;28;20181;-62
2022/12/27 10:59:40;;;;;;;2.23;1.67;;;9.70;87.50;;;;;;4134070;28;20198;-63
2022/12/27 11:01:42;;;;;;;3.13;1.40;;;9.70;85.30;;;;;;4144607;28;20186;-63
2022/12/27 11:03:43;;;;;;;2.53;1.10;;;10.10;81.20;;;;;;4133975;28;20313;-64
2022/12/27 11:06:02;;;;;;;2.77;1.27;;;10.80;81.50;;;;;;4145399;28;20182;-66
2022/12/27 11:08:22;;;;;;;1.80;1.00;;;11.00;79.80;;;;;;4114572;28;20557;-65
2022/12/27 11:10:30;;;;;;;2.07;1.10;;;11.60;72.00;;;;;;4129924;28;20237;-64
2022/12/27 11:12:31;;;;;;;1.87;1.10;;;12.10;69.90;;;;;;4129921;28;20256;-66
2022/12/27 11:14:33;;;;;;;2.50;1.47;;;12.10;67.10;;;;;;4129918;28;20707;-65
2022/12/27 11:16:35;;;;;;;2.20;1.37;;;11.70;71.30;;;;;;4134932;28;20607;-66
2022/12/27 11:18:43;;;;;;;1.53;0.93;;;11.40;65.60;;;;;;4148651;28;20229;-64
2022/12/27 11:20:49;;;;;;;2.20;1.00;;;11.30;68.10;;;;;;4143070;28;20181;-66
2022/12/27 11:22:57;;;;;;;2.73;0.93;;;11.20;70.80;;;;;;4142658;28;20675;-65
2022/12/27 11:24:59;;;;;;;2.50;1.00;;;11.30;71.90;;;;;;4139876;28;20930;-66
2022/12/27 11:27:01;;;;;;;3.47;1.10;;;11.20;71.30;;;;;;4139329;28;20204;-65
2022/12/27 11:29:02;;;;;;;2.30;1.10;;;11.20;72.10;;;;;;4139188;28;20214;-65
2022/12/27 11:31:16;;;;;;;1.47;1.03;;;11.00;73.40;;;;;;4138746;28;20210;-65
2022/12/27 11:33:36;;;;;;;2.23;1.20;;;11.20;73.00;;;;;;4129920;28;20189;-65
2022/12/27 11:35:49;;;;;;;2.13;1.37;;;11.60;71.20;;;;;;4129869;28;20179;-64
2022/12/27 11:37:51;;;;;;;1.73;1.10;;;11.50;68.30;;;;;;4128708;28;20261;-65
2022/12/27 11:40:20;;;;;;;3.03;1.13;;;11.70;69.50;;;;;;4111632;28;20761;-65
2022/12/27 11:42:37;;;;;;;3.03;1.40;;;11.30;64.40;;;;;;4099901;28;20211;-64
2022/12/27 11:44:44;;;;;;;3.67;2.13;;;10.30;71.80;;;;;;4113698;28;20568;-64
2022/12/27 11:47:00;;;;;;;3.83;2.20;;;10.00;74.90;;;;;;4128923;28;20174;-65
2022/12/27 11:49:05;;;;;;;3.53;2.10;;;10.10;76.50;;;;;;4129337;28;20205;-64
2022/12/27 11:52:01;;;;;;;3.27;1.60;;;10.70;74.00;;;;;;4129214;28;20293;-66
2022/12/27 11:54:38;;;;;;;2.30;1.30;;;11.60;71.00;;;;;;4089546;28;20324;-65
2022/12/27 11:56:47;;;;;;;2.87;2.00;;;12.50;66.70;;;;;;4140759;28;20273;-65
2022/12/27 11:59:28;;;;;;;2.10;1.30;;;13.20;62.00;;;;;;4128911;28;20214;-65
2022/12/27 12:02:11;;;;;;;2.40;1.43;;;13.70;54.30;;;;;;4134682;28;20186;-67
2022/12/27 12:04:49;;;;;;;2.73;1.60;;;14.00;52.50;;;;;;4116857;28;20554;-65
2022/12/27 12:07:10;;;;;;;2.50;1.07;;;14.10;52.20;;;;;;4138882;28;20288;-66
2022/12/27 12:09:39;;;;;;;2.83;1.07;;;13.70;46.80;;;;;;4128809;28;20325;-63
2022/12/27 12:12:04;;;;;;;2.17;1.00;;;13.10;47.40;;;;;;4128576;28;20202;-63
2022/12/27 12:14:31;;;;;;;2.57;1.27;;;13.50;47.70;;;;;;4114613;28;20175;-63
2022/12/27 12:16:49;;;;;;;1.70;0.97;;;12.70;52.70;;;;;;4141525;28;20178;-63
2022/12/27 12:19:13;;;;;;;2.50;1.10;;;12.00;51.40;;;;;;4129009;28;20221;-64
2022/12/27 12:21:39;;;;;;;4.53;1.30;;;12.10;52.90;;;;;;4099510;28;20791;-67
2022/12/27 12:23:58;;;;;;;2.37;1.20;;;12.60;53.50;;;;;;4143384;28;20710;-66
2022/12/27 12:26:20;;;;;;;2.30;0.90;;;13.30;49.80;;;;;;4130139;28;20240;-65
2022/12/27 12:28:58;;;;;;;2.43;1.00;;;13.80;47.30;;;;;;4129727;28;20177;-65
2022/12/27 12:31:19;;;;;;;1.10;0.70;;;13.60;48.00;;;;;;4129384;28;20202;-65
2022/12/27 12:34:21;;;;;;;3.80;0.70;;;13.10;45.20;;;;;;4135485;28;20241;-64
2022/12/27 12:37:02;;;;;;;1.30;0.70;;;11.40;51.50;;;;;;4118704;28;20204;-64